Latest Weather Observations for Blackwater Airport

IDQ60801

Issued at 12:02 pm EST Monday 5 December 2016 (issued every 30 minutes, with the page automatically refreshed every 10 minutes)

About weather observations | Map of weather stations | Latest weather observations for QLD | Other Formats
Station Details ID: 035134 Name: BLACKWATER AIRPORT Lat: -23.60 Lon: 148.81 Height: 192.95 m
Data from the previous 72 hours. | See also: Recent months at Blackwater Airport
Date/Time
EST
Temp
°C
App
Temp
°C
Dew
Point
°C
Rel
Hum
%
Delta-T
°C
Wind Press
QNH
hPa
Press
MSL
hPa
Rain since
9am
mm
Dir  Spd
km/h
Gust
km/h
Spd
kts
Gust
kts
05/12:00pm 34.9 33.4 14.2 28 12.8 NNE 15 24 8 13 1014.1 1012.8 0.0
05/11:30am 35.3 33.9 15.6 31 12.5 NE 17 32 9 17 1014.5 1013.2 0.0
05/11:00am 34.0 31.8 14.5 31 12.1 NNE 19 28 10 15 1015.1 1013.8 0.0
05/10:30am 33.7 32.5 16.1 34 11.2 NNE 17 32 9 17 1015.5 1014.2 0.0
05/10:00am 32.1 30.9 16.0 38 10.1 N 17 28 9 15 1015.9 1014.6 0.0
05/09:30am 31.6 31.0 17.5 43 9.1 NNE 17 26 9 14 1016.1 1014.8 0.0
05/09:00am 30.6 29.8 18.0 47 8.1 N 19 26 10 14 1016.2 1014.9 0.0
05/08:30am 29.1 28.6 17.9 50 7.2 NNE 17 24 9 13 1016.4 1015.2 0.0
05/08:00am 28.0 28.4 19.0 58 5.8 NNE 15 22 8 12 1016.8 1015.6 0.0
05/07:30am 26.9 26.3 18.5 60 5.4 NNE 19 24 10 13 1016.8 1015.6 0.0
05/07:00am 25.6 26.0 19.0 67 4.2 NNE 15 20 8 11 1016.6 1015.4 0.0
05/06:30am 24.6 25.8 19.9 75 3.1 NE 13 17 7 9 1016.3 1015.1 0.0
05/06:00am 23.0 25.2 20.5 86 1.6 NE 9 13 5 7 1015.8 1014.5 0.0
05/05:30am 21.4 23.3 19.7 90 1.1 NE 9 13 5 7 1015.5 1014.2 0.0
05/05:00am 20.8 22.4 19.1 90 1.1 NE 9 13 5 7 1015.1 1013.8 0.0
05/04:30am 21.0 22.2 19.1 89 1.2 NNE 11 11 6 6 1014.7 1013.4 0.0
05/04:00am 21.0 22.1 18.8 87 1.4 NE 11 13 6 7 1014.4 1013.1 0.0
05/03:30am 21.3 22.0 18.9 86 1.5 N 13 13 7 7 1014.1 1012.8 0.0
05/03:00am 21.5 22.5 18.7 84 1.8 NNE 11 13 6 7 1013.7 1012.5 0.0
05/02:30am 22.2 23.2 18.6 80 2.3 NNE 11 13 6 7 1013.6 1012.4 0.0
05/02:00am 22.8 22.9 18.3 76 2.8 NNE 15 20 8 11 1013.4 1012.2 0.0
05/01:30am 23.4 23.4 18.1 72 3.3 NE 15 22 8 12 1013.4 1012.2 0.0
05/01:00am 23.7 23.2 17.7 69 3.8 NE 17 22 9 12 1013.4 1012.2 0.0
05/12:30am 24.1 23.6 17.8 68 4.0 NE 17 22 9 12 1013.7 1012.5 0.0
05/12:00am 24.6 23.9 17.3 64 4.6 NE 17 24 9 13 1013.9 1012.7 0.0
 
Date/Time
EST
Temp
°C
App
Temp
°C
Dew
Point
°C
Rel
Hum
%
Delta-T
°C
Wind Press
QNH
hPa
Press
MSL
hPa
Rain since
9am
mm
Dir  Spd
km/h
Gust
km/h
Spd
kts
Gust
kts
04/11:30pm 25.4 24.2 17.6 62 4.9 NE 20 30 11 16 1014.1 1012.8 0.0
04/11:00pm 25.9 24.2 17.3 59 5.4 NE 22 33 12 18 1014.3 1013.0 0.0
04/10:30pm 26.3 25.0 16.8 56 5.9 NE 19 26 10 14 1014.3 1013.0 0.0
04/10:00pm 26.9 25.7 16.2 52 6.6 NE 17 26 9 14 1013.8 1012.6 0.0
04/09:30pm 27.7 26.0 15.7 48 7.4 NE 19 24 10 13 1013.5 1012.3 0.0
04/09:00pm 28.8 27.2 16.0 45 8.0 NE 19 26 10 14 1013.0 1011.8 0.0
04/08:30pm 29.5 27.9 14.9 41 9.0 NE 17 20 9 11 1012.9 1011.7 0.0
04/08:00pm 30.8 28.6 14.8 37 9.9 NE 20 28 11 15 1012.5 1011.3 0.0
04/07:30pm 31.8 29.2 14.9 36 10.5 NE 22 33 12 18 1012.1 1010.9 0.0
04/07:00pm 32.8 30.6 14.9 34 11.1 NE 20 28 11 15 1011.8 1010.6 0.0
04/06:30pm 34.4 32.0 14.3 30 12.5 NNE 20 35 11 19 1011.3 1010.0 0.0
04/06:00pm 36.7 35.1 12.8 24 14.6 NNE 13 17 7 9 1010.9 1009.6 0.0
04/05:30pm 37.6 35.9 12.3 22 15.4 NNW 13 20 7 11 1010.6 1009.3 0.0
04/05:00pm 37.9 36.4 11.8 21 15.8 NNW 11 19 6 10 1010.5 1009.2 0.0
04/04:30pm 38.3 37.0 11.4 20 16.2 N 9 17 5 9 1010.6 1009.3 0.0
04/04:00pm 38.7 37.8 12.5 21 16.1 WNW 9 17 5 9 1010.7 1009.4 0.0
04/03:30pm 39.2 38.1 12.1 20 16.6 NNW 9 20 5 11 1011.0 1009.7 0.0
04/03:00pm 38.1 35.5 12.0 21 15.9 NNW 17 32 9 17 1011.5 1010.2 0.0
04/02:30pm 38.7 36.3 12.5 21 16.1 NNW 17 28 9 15 1011.8 1010.6 0.0
04/02:00pm 37.8 35.9 13.1 23 15.2 NNW 15 28 8 15 1012.2 1011.0 0.0
04/01:30pm 37.6 35.1 12.3 22 15.4 N 17 32 9 17 1012.8 1011.6 0.0
04/01:00pm 35.6 33.7 14.3 28 13.3 NNW 17 30 9 16 1013.3 1012.1 0.0
04/12:30pm 35.5 34.2 15.8 31 12.5 NNW 17 26 9 14 1013.8 1012.6 0.0
04/12:00pm 35.0 34.3 16.3 32 11.9 N 15 24 8 13 1014.5 1013.2 0.0
04/11:30am 33.6 32.8 16.0 34 11.1 NNW 15 26 8 14 1015.0 1013.7 0.0
04/11:00am 33.3 32.9 17.1 38 10.4 NNE 15 26 8 14 1015.7 1014.4 0.0
04/10:30am 32.4 31.2 17.1 40 9.8 NNW 19 28 10 15 1016.0 1014.7 0.0
04/10:00am 30.8 30.0 17.1 43 8.7 N 17 32 9 17 1016.3 1015.1 0.0
04/09:30am 30.2 29.5 18.3 49 7.7 NNW 19 32 10 17 1016.6 1015.4 0.0
04/09:00am 28.4 28.6 18.5 55 6.4 NNW 15 24 8 13 1016.9 1015.7 0.0
04/08:30am 28.6 28.0 18.4 54 6.6 N 19 24 10 13 1017.1 1015.9 0.0
04/08:00am 26.8 26.6 18.6 60 5.3 N 17 24 9 13 1017.2 1016.0 0.0
04/07:30am 27.7 28.1 19.8 62 5.2 NNE 17 24 9 13 1017.2 1016.0 0.0
04/07:00am 25.6 25.2 19.0 67 4.2 NNE 19 28 10 15 1016.9 1015.7 0.0
04/06:30am 23.9 25.1 19.8 78 2.7 NNE 13 17 7 9 1016.4 1015.2 0.0
04/06:00am 23.4 25.0 20.0 81 2.2 NE 11 17 6 9 1016.6 1015.4 0.0
04/05:30am 23.0 23.4 19.8 82 2.1 NNE 17 20 9 11 1016.2 1014.9 0.0
04/05:00am 23.3 23.6 19.7 80 2.3 NE 17 24 9 13 1016.0 1014.7 0.0
04/04:30am 23.6 22.6 19.7 79 2.5 NE 24 33 13 18 1015.7 1014.4 0.0
04/04:00am 23.7 21.9 19.6 78 2.6 ENE 28 39 15 21 1015.9 1014.6 0.0
04/03:30am 23.8 21.2 19.5 77 2.8 ENE 32 43 17 23 1015.5 1014.2 0.0
04/03:00am 24.1 21.8 19.4 75 3.0 ENE 30 41 16 22 1015.6 1014.3 0.0
04/02:49am 24.0 21.6 19.9 78 2.7 ENE 32 50 17 27 1015.4 1014.1 0.0
04/02:30am 24.0 21.9 19.7 77 2.8 ENE 30 43 16 23 1014.9 1013.6 0.0
04/02:27am 24.0 22.2 19.5 76 2.9 ENE 28 43 15 23 1014.8 1013.5 0.0
04/02:00am 24.3 23.7 17.5 66 4.3 NE 17 22 9 12 1014.2 1012.9 0.0
04/01:30am 24.7 23.5 16.2 59 5.2 NE 17 22 9 12 1014.3 1013.0 0.0
04/01:00am 25.1 24.1 16.5 59 5.3 ENE 17 22 9 12 1014.2 1012.9 0.0
04/12:30am 25.0 24.4 18.9 69 3.9 NE 20 28 11 15 1014.2 1012.9 0.0
04/12:00am 25.3 24.6 18.2 64 4.5 NE 19 24 10 13 1014.1 1012.8 0.0
 
Date/Time
EST
Temp
°C
App
Temp
°C
Dew
Point
°C
Rel
Hum
%
Delta-T
°C
Wind Press
QNH
hPa
Press
MSL
hPa
Rain since
9am
mm
Dir  Spd
km/h
Gust
km/h
Spd
kts
Gust
kts
03/11:30pm 25.2 24.7 17.7 63 4.7 NE 17 22 9 12 1013.7 1012.5 0.0
03/11:00pm 25.5 24.8 17.4 61 5.1 NE 17 24 9 13 1013.9 1012.7 0.0
03/10:30pm 25.7 24.5 16.0 55 6.0 NE 17 22 9 12 1013.5 1012.3 0.0
03/10:00pm 26.2 24.6 15.0 50 6.8 NE 17 22 9 12 1013.3 1012.1 0.0
03/09:30pm 27.3 25.3 14.0 44 8.0 NE 17 24 9 13 1013.5 1012.3 0.0
03/09:00pm 28.0 26.3 12.4 38 9.2 NE 13 17 7 9 1013.0 1011.8 0.0
03/08:30pm 28.6 27.2 12.1 36 9.7 NE 11 15 6 8 1012.5 1011.3 0.0
03/08:00pm 30.2 27.9 11.7 32 10.8 NE 15 20 8 11 1011.9 1010.7 0.0
03/07:30pm 32.0 29.1 12.3 30 11.7 NE 19 28 10 15 1011.5 1010.2 0.0
03/07:00pm 33.3 30.3 11.8 27 12.8 NE 19 26 10 14 1011.2 1009.9 0.0
03/06:30pm 35.0 31.1 12.0 25 13.8 NE 24 32 13 17 1010.8 1009.5 0.0
03/06:00pm 37.6 33.8 9.2 18 16.6 NE 19 24 10 13 1010.4 1009.1 0.0
03/05:30pm 38.8 35.2 8.5 16 17.6 NNE 17 22 9 12 1010.1 1008.8 0.0
03/05:00pm 39.5 35.8 8.1 15 18.2 N 17 24 9 13 1009.9 1008.6 0.0
03/04:30pm 40.5 37.1 7.8 14 18.9 N 15 26 8 14 1010.0 1008.7 0.0
03/04:00pm 40.1 36.7 7.5 14 18.7 NW 15 24 8 13 1010.0 1008.7 0.0
03/03:30pm 40.5 36.9 6.7 13 19.2 N 15 20 8 11 1010.2 1008.9 0.0
03/03:00pm 39.3 35.4 6.9 14 18.4 NNW 17 30 9 16 1010.5 1009.2 0.0
03/02:30pm 40.4 37.0 7.8 14 18.8 NNW 15 26 8 14 1010.8 1009.5 0.0
03/02:00pm 40.0 37.6 8.5 15 18.4 NNW 11 26 6 14 1011.2 1009.9 0.0
03/01:30pm 39.3 36.0 7.9 15 18.1 NNE 15 28 8 15 1011.6 1010.3 0.0
03/01:00pm 40.0 37.8 9.4 16 18.1 N 11 28 6 15 1012.0 1010.8 0.0
03/12:30pm 39.4 35.9 8.9 16 17.8 N 17 32 9 17 1012.5 1011.3 0.0
03/12:00pm 39.0 35.8 11.2 19 16.8 NNW 19 26 10 14 1012.9 1011.7 0.0
03/11:30am 37.6 35.2 11.5 21 15.7 NNW 15 24 8 13 1013.3 1012.1 0.0
03/11:00am 36.4 35.0 14.4 27 13.7 NNE 15 26 8 14 1013.7 1012.5 0.0
03/10:30am 34.4 33.3 15.3 31 12.0 N 15 24 8 13 1014.2 1012.9 0.0
03/10:00am 34.0 33.1 15.9 33 11.5 N 15 26 8 14 1014.7 1013.4 0.0
03/09:30am 33.4 32.3 15.4 34 11.3 NW 15 24 8 13 1014.8 1013.5 0.0
03/09:00am 32.4 31.8 16.7 39 10.0 N 15 22 8 12 1014.8 1013.5 0.0
03/08:30am 29.7 30.0 17.8 48 7.6 NNW 13 20 7 11 1015.1 1013.8 0.0
03/08:00am 28.0 28.8 19.0 58 5.8 NNE 13 20 7 11 1015.1 1013.8 0.0
03/07:30am 27.1 27.7 19.4 62 5.0 N 15 24 8 13 1015.0 1013.7 0.0
03/07:00am 26.4 26.8 19.8 67 4.3 NE 17 20 9 11 1014.7 1013.4 0.0
03/06:30am 24.6 26.2 20.7 79 2.6 NE 13 19 7 10 1014.4 1013.1 0.0
03/06:00am 22.4 24.6 20.3 88 1.4 NE 9 11 5 6 1014.2 1012.9 0.0
03/05:30am 21.0 23.1 19.3 90 1.1 NE 7 9 4 5 1013.6 1012.4 0.0
03/05:00am 21.4 22.8 19.5 89 1.2 NE 11 13 6 7 1012.9 1011.7 0.0
03/04:30am 21.7 22.9 19.8 89 1.2 NE 13 15 7 8 1012.5 1011.3 0.0
03/04:00am 21.8 23.1 20.1 90 1.1 NE 13 17 7 9 1012.2 1011.0 0.0
03/03:30am 21.6 23.1 19.7 89 1.2 NE 11 13 6 7 1012.0 1010.8 0.0
03/03:00am 22.1 24.1 20.0 88 1.4 NE 9 11 5 6 1011.7 1010.5 0.0
03/02:30am 22.2 23.8 19.9 87 1.5 NE 11 13 6 7 1011.5 1010.2 0.0
03/02:00am 22.7 24.3 20.0 85 1.8 NE 11 15 6 8 1011.6 1010.3 0.0
03/01:30am 23.4 24.4 20.3 83 2.0 NE 15 19 8 10 1011.5 1010.2 0.0
03/01:00am 23.5 24.5 20.2 82 2.2 NE 15 20 8 11 1011.6 1010.3 0.0
03/12:30am 23.8 24.7 20.1 80 2.4 NE 15 20 8 11 1011.9 1010.7 0.0
03/12:00am 24.4 25.0 20.3 78 2.7 NE 17 24 9 13 1012.0 1010.8 0.0
 
Date/Time
EST
Temp
°C
App
Temp
°C
Dew
Point
°C
Rel
Hum
%
Delta-T
°C
Wind Press
QNH
hPa
Press
MSL
hPa
Rain since
9am
mm
Dir  Spd
km/h
Gust
km/h
Spd
kts
Gust
kts
02/11:30pm 24.6 25.0 19.9 75 3.1 ENE 17 20 9 11 1012.2 1011.0 0.0
02/11:00pm 25.0 26.1 19.6 72 3.5 NE 13 20 7 11 1012.3 1011.1 0.0
02/10:30pm 25.6 26.5 19.3 68 4.1 NE 13 19 7 10 1012.3 1011.1 0.0
02/10:00pm 26.0 26.7 18.9 65 4.6 NE 13 17 7 9 1012.2 1011.0 0.0
02/09:30pm 27.0 26.9 18.8 60 5.3 NNE 17 20 9 11 1012.0 1010.8 0.0
02/09:00pm 27.9 28.3 19.1 58 5.7 NNE 15 20 8 11 1011.7 1010.5 0.0
02/08:30pm 29.0 28.6 17.2 49 7.5 NE 15 20 8 11 1011.4 1010.1 0.0
02/08:00pm 30.4 29.2 16.0 41 9.0 ENE 17 24 9 13 1011.0 1009.7 0.0
02/07:30pm 31.8 30.5 17.3 42 9.3 NE 20 26 11 14 1010.4 1009.1 0.0
02/07:00pm 33.2 32.0 17.4 39 10.2 NE 20 30 11 16 1009.9 1008.6 0.0
02/06:30pm 34.9 32.8 16.2 32 11.9 NE 22 35 12 19 1009.4 1008.1 0.0
02/06:00pm 37.8 34.6 6.7 15 17.5 ENE 13 17 7 9 1008.9 1007.6 0.0
02/05:30pm 38.9 36.2 5.5 13 18.5 N 9 13 5 7 1008.5 1007.3 0.0
02/05:00pm 40.2 36.4 4.1 11 19.8 NNW 13 26 7 14 1008.3 1007.1 0.0
02/04:30pm 39.8 37.1 3.8 11 19.5 S 7 13 4 7 1008.3 1007.1 0.0
02/04:00pm 40.1 35.6 4.0 11 19.7 W 17 26 9 14 1008.2 1007.0 0.0
02/03:30pm 40.3 38.3 4.2 11 19.8 WNW 4 9 2 5 1008.4 1007.2 0.0
02/03:00pm 39.5 37.0 4.8 12 19.1 NNE 7 24 4 13 1008.9 1007.6 0.0
02/02:30pm 39.2 35.3 3.4 11 19.3 ESE 13 28 7 15 1009.1 1007.8 0.0
02/02:00pm 39.6 35.2 4.9 12 19.2 ENE 17 28 9 15 1009.4 1008.1 0.0
02/01:30pm 39.1 36.6 6.7 14 18.3 ENE 9 15 5 8 1009.9 1008.6 0.0
02/01:00pm 38.3 36.0 10.6 19 16.5 NW 13 22 7 12 1010.3 1009.0 0.0
02/12:30pm 37.6 36.0 12.9 23 15.2 N 13 20 7 11 1010.9 1009.6 0.0

Other Formats:

Comma delimited format used in spreadsheet applications
http://www.bom.gov.au/fwo/IDQ60801/IDQ60801.94398.axf

JavaScript Object Notation format (JSON) in row-major order
http://www.bom.gov.au/fwo/IDQ60801/IDQ60801.94398.json